sensor_id;sensor_type;location;lat;lon;timestamp;P1;durP1;ratioP1;P2;durP2;ratioP2
69401;SDS011;56589;51.992;5.924;2023-07-31T00:02:25;1.85;;;0.93;;
69401;SDS011;56589;51.992;5.924;2023-07-31T00:04:50;1.17;;;0.88;;
69401;SDS011;56589;51.992;5.924;2023-07-31T00:07:19;1.35;;;1.05;;
69401;SDS011;56589;51.992;5.924;2023-07-31T00:09:45;1.55;;;0.90;;
69401;SDS011;56589;51.992;5.924;2023-07-31T00:12:11;1.48;;;0.90;;
69401;SDS011;56589;51.992;5.924;2023-07-31T00:14:36;1.52;;;1.20;;
69401;SDS011;56589;51.992;5.924;2023-07-31T00:17:02;1.80;;;1.20;;
69401;SDS011;56589;51.992;5.924;2023-07-31T00:19:29;2.08;;;1.13;;
69401;SDS011;56589;51.992;5.924;2023-07-31T00:21:55;1.40;;;0.98;;
69401;SDS011;56589;51.992;5.924;2023-07-31T00:24:24;2.25;;;1.20;;
69401;SDS011;56589;51.992;5.924;2023-07-31T00:26:50;3.50;;;1.10;;
69401;SDS011;56589;51.992;5.924;2023-07-31T00:29:16;1.10;;;1.00;;
69401;SDS011;56589;51.992;5.924;2023-07-31T00:31:41;1.73;;;1.25;;
69401;SDS011;56589;51.992;5.924;2023-07-31T00:34:07;2.13;;;1.10;;
69401;SDS011;56589;51.992;5.924;2023-07-31T00:36:33;1.75;;;1.27;;
69401;SDS011;56589;51.992;5.924;2023-07-31T00:38:59;2.60;;;1.50;;
69401;SDS011;56589;51.992;5.924;2023-07-31T00:41:28;1.63;;;1.33;;
69401;SDS011;56589;51.992;5.924;2023-07-31T00:43:53;2.72;;;1.65;;
69401;SDS011;56589;51.992;5.924;2023-07-31T00:46:19;4.03;;;1.73;;
69401;SDS011;56589;51.992;5.924;2023-07-31T00:48:46;4.35;;;1.85;;
69401;SDS011;56589;51.992;5.924;2023-07-31T00:51:12;6.30;;;2.83;;
69401;SDS011;56589;51.992;5.924;2023-07-31T00:53:39;7.07;;;2.60;;
69401;SDS011;56589;51.992;5.924;2023-07-31T00:56:05;6.47;;;3.10;;
69401;SDS011;56589;51.992;5.924;2023-07-31T00:58:34;10.18;;;4.05;;
69401;SDS011;56589;51.992;5.924;2023-07-31T01:01:00;8.02;;;3.72;;
69401;SDS011;56589;51.992;5.924;2023-07-31T01:03:26;13.27;;;4.85;;
69401;SDS011;56589;51.992;5.924;2023-07-31T01:05:54;13.02;;;4.75;;
69401;SDS011;56589;51.992;5.924;2023-07-31T01:08:36;17.80;;;5.47;;
69401;SDS011;56589;51.992;5.924;2023-07-31T01:11:11;21.25;;;6.07;;
69401;SDS011;56589;51.992;5.924;2023-07-31T01:13:49;26.80;;;6.85;;
69401;SDS011;56589;51.992;5.924;2023-07-31T01:16:15;22.35;;;6.70;;
69401;SDS011;56589;51.992;5.924;2023-07-31T01:18:41;29.05;;;7.10;;
69401;SDS011;56589;51.992;5.924;2023-07-31T01:21:12;29.00;;;7.72;;
69401;SDS011;56589;51.992;5.924;2023-07-31T01:24:10;24.05;;;7.45;;
69401;SDS011;56589;51.992;5.924;2023-07-31T01:26:51;24.55;;;7.85;;
69401;SDS011;56589;51.992;5.924;2023-07-31T01:29:23;24.55;;;7.45;;
69401;SDS011;56589;51.992;5.924;2023-07-31T01:32:02;23.80;;;7.30;;
69401;SDS011;56589;51.992;5.924;2023-07-31T01:34:31;21.67;;;7.65;;
69401;SDS011;56589;51.992;5.924;2023-07-31T01:37:00;25.42;;;7.82;;
69401;SDS011;56589;51.992;5.924;2023-07-31T01:39:25;26.42;;;7.78;;
69401;SDS011;56589;51.992;5.924;2023-07-31T01:41:54;22.67;;;7.35;;
69401;SDS011;56589;51.992;5.924;2023-07-31T01:44:20;26.65;;;7.30;;
69401;SDS011;56589;51.992;5.924;2023-07-31T01:46:46;24.55;;;7.80;;
69401;SDS011;56589;51.992;5.924;2023-07-31T01:49:12;21.27;;;7.57;;
69401;SDS011;56589;51.992;5.924;2023-07-31T01:51:38;21.65;;;7.40;;
69401;SDS011;56589;51.992;5.924;2023-07-31T01:54:04;21.40;;;6.80;;
69401;SDS011;56589;51.992;5.924;2023-07-31T01:56:29;23.60;;;7.93;;
69401;SDS011;56589;51.992;5.924;2023-07-31T01:58:58;25.60;;;6.47;;
69401;SDS011;56589;51.992;5.924;2023-07-31T02:01:24;23.92;;;6.63;;
69401;SDS011;56589;51.992;5.924;2023-07-31T02:03:50;18.52;;;6.40;;
69401;SDS011;56589;51.992;5.924;2023-07-31T02:06:15;20.52;;;6.60;;
69401;SDS011;56589;51.992;5.924;2023-07-31T02:08:41;22.58;;;6.80;;
69401;SDS011;56589;51.992;5.924;2023-07-31T02:11:07;23.23;;;6.30;;
69401;SDS011;56589;51.992;5.924;2023-07-31T02:13:33;27.00;;;6.95;;
69401;SDS011;56589;51.992;5.924;2023-07-31T02:16:02;19.15;;;6.05;;
69401;SDS011;56589;51.992;5.924;2023-07-31T02:18:28;22.90;;;6.53;;
69401;SDS011;56589;51.992;5.924;2023-07-31T02:20:53;21.40;;;6.82;;
69401;SDS011;56589;51.992;5.924;2023-07-31T02:23:19;18.00;;;6.15;;
69401;SDS011;56589;51.992;5.924;2023-07-31T02:25:45;24.60;;;6.18;;
69401;SDS011;56589;51.992;5.924;2023-07-31T02:28:12;23.17;;;7.57;;
69401;SDS011;56589;51.992;5.924;2023-07-31T02:30:38;20.75;;;5.95;;
69401;SDS011;56589;51.992;5.924;2023-07-31T02:33:07;18.50;;;5.60;;
69401;SDS011;56589;51.992;5.924;2023-07-31T02:35:32;20.80;;;6.65;;
69401;SDS011;56589;51.992;5.924;2023-07-31T02:37:58;18.33;;;6.05;;
69401;SDS011;56589;51.992;5.924;2023-07-31T02:40:24;17.80;;;5.70;;
69401;SDS011;56589;51.992;5.924;2023-07-31T02:42:50;21.45;;;6.10;;
69401;SDS011;56589;51.992;5.924;2023-07-31T02:45:16;15.75;;;5.60;;
69401;SDS011;56589;51.992;5.924;2023-07-31T02:47:42;16.42;;;5.57;;
69401;SDS011;56589;51.992;5.924;2023-07-31T02:50:10;24.50;;;5.53;;
69401;SDS011;56589;51.992;5.924;2023-07-31T02:52:36;19.45;;;6.53;;
69401;SDS011;56589;51.992;5.924;2023-07-31T02:55:02;18.73;;;5.57;;
69401;SDS011;56589;51.992;5.924;2023-07-31T02:57:29;20.60;;;6.15;;
69401;SDS011;56589;51.992;5.924;2023-07-31T02:59:55;26.63;;;5.55;;
69401;SDS011;56589;51.992;5.924;2023-07-31T03:02:21;21.52;;;6.35;;
69401;SDS011;56589;51.992;5.924;2023-07-31T03:04:47;21.73;;;5.50;;
69401;SDS011;56589;51.992;5.924;2023-07-31T03:07:15;27.65;;;6.20;;
69401;SDS011;56589;51.992;5.924;2023-07-31T03:09:41;22.80;;;6.57;;
69401;SDS011;56589;51.992;5.924;2023-07-31T03:12:07;20.92;;;5.55;;
69401;SDS011;56589;51.992;5.924;2023-07-31T03:14:34;21.23;;;6.72;;
69401;SDS011;56589;51.992;5.924;2023-07-31T03:16:59;20.38;;;6.13;;
69401;SDS011;56589;51.992;5.924;2023-07-31T03:19:25;28.33;;;6.13;;
69401;SDS011;56589;51.992;5.924;2023-07-31T03:21:51;21.50;;;6.65;;
69401;SDS011;56589;51.992;5.924;2023-07-31T03:24:20;21.35;;;6.05;;
69401;SDS011;56589;51.992;5.924;2023-07-31T03:26:45;18.17;;;6.32;;
69401;SDS011;56589;51.992;5.924;2023-07-31T03:29:11;23.45;;;5.68;;
69401;SDS011;56589;51.992;5.924;2023-07-31T03:31:37;24.48;;;6.22;;
69401;SDS011;56589;51.992;5.924;2023-07-31T03:34:03;16.40;;;5.88;;
69401;SDS011;56589;51.992;5.924;2023-07-31T03:36:29;23.70;;;6.57;;
69401;SDS011;56589;51.992;5.924;2023-07-31T03:38:55;21.48;;;7.10;;
69401;SDS011;56589;51.992;5.924;2023-07-31T03:41:23;19.08;;;5.63;;
69401;SDS011;56589;51.992;5.924;2023-07-31T03:43:50;28.52;;;6.18;;
69401;SDS011;56589;51.992;5.924;2023-07-31T03:46:16;17.95;;;5.60;;
69401;SDS011;56589;51.992;5.924;2023-07-31T03:48:42;20.15;;;5.90;;
69401;SDS011;56589;51.992;5.924;2023-07-31T03:51:08;18.60;;;5.72;;
69401;SDS011;56589;51.992;5.924;2023-07-31T03:53:34;19.75;;;5.78;;
69401;SDS011;56589;51.992;5.924;2023-07-31T03:56:00;19.10;;;6.22;;
69401;SDS011;56589;51.992;5.924;2023-07-31T03:58:28;18.00;;;6.15;;
69401;SDS011;56589;51.992;5.924;2023-07-31T04:00:54;16.38;;;5.82;;
69401;SDS011;56589;51.992;5.924;2023-07-31T04:03:20;14.43;;;5.15;;
69401;SDS011;56589;51.992;5.924;2023-07-31T04:05:46;20.45;;;5.28;;
69401;SDS011;56589;51.992;5.924;2023-07-31T04:08:12;18.40;;;5.57;;
69401;SDS011;56589;51.992;5.924;2023-07-31T04:10:38;12.68;;;4.75;;
69401;SDS011;56589;51.992;5.924;2023-07-31T04:13:04;23.52;;;6.80;;
69401;SDS011;56589;51.992;5.924;2023-07-31T04:15:32;19.88;;;5.10;;
69401;SDS011;56589;51.992;5.924;2023-07-31T04:17:58;23.60;;;6.28;;
69401;SDS011;56589;51.992;5.924;2023-07-31T04:20:24;19.23;;;5.97;;
69401;SDS011;56589;51.992;5.924;2023-07-31T04:22:50;18.50;;;6.07;;
69401;SDS011;56589;51.992;5.924;2023-07-31T04:25:15;19.75;;;5.88;;
69401;SDS011;56589;51.992;5.924;2023-07-31T04:27:42;21.05;;;5.78;;
69401;SDS011;56589;51.992;5.924;2023-07-31T04:30:08;15.55;;;5.93;;
69401;SDS011;56589;51.992;5.924;2023-07-31T04:32:37;26.73;;;5.53;;
69401;SDS011;56589;51.992;5.924;2023-07-31T04:35:03;16.33;;;6.82;;
69401;SDS011;56589;51.992;5.924;2023-07-31T04:37:30;15.82;;;4.88;;
69401;SDS011;56589;51.992;5.924;2023-07-31T04:39:56;19.38;;;6.18;;
69401;SDS011;56589;51.992;5.924;2023-07-31T04:42:22;20.80;;;5.20;;
69401;SDS011;56589;51.992;5.924;2023-07-31T04:44:48;15.75;;;6.07;;
69401;SDS011;56589;51.992;5.924;2023-07-31T04:47:14;18.33;;;5.65;;
69401;SDS011;56589;51.992;5.924;2023-07-31T04:49:42;20.13;;;6.03;;
69401;SDS011;56589;51.992;5.924;2023-07-31T04:52:08;18.30;;;5.40;;
69401;SDS011;56589;51.992;5.924;2023-07-31T04:54:34;20.17;;;5.00;;
69401;SDS011;56589;51.992;5.924;2023-07-31T04:57:00;15.27;;;4.90;;
69401;SDS011;56589;51.992;5.924;2023-07-31T04:59:26;18.63;;;5.57;;
69401;SDS011;56589;51.992;5.924;2023-07-31T05:01:51;16.42;;;5.05;;
69401;SDS011;56589;51.992;5.924;2023-07-31T05:04:17;18.90;;;5.55;;
69401;SDS011;56589;51.992;5.924;2023-07-31T05:06:46;12.85;;;4.55;;
69401;SDS011;56589;51.992;5.924;2023-07-31T05:09:11;18.05;;;5.13;;
69401;SDS011;56589;51.992;5.924;2023-07-31T05:11:37;16.80;;;5.35;;
69401;SDS011;56589;51.992;5.924;2023-07-31T05:14:03;19.55;;;5.28;;
69401;SDS011;56589;51.992;5.924;2023-07-31T05:16:29;14.85;;;4.68;;
69401;SDS011;56589;51.992;5.924;2023-07-31T05:18:55;19.92;;;5.35;;
69401;SDS011;56589;51.992;5.924;2023-07-31T05:21:21;14.23;;;5.78;;
69401;SDS011;56589;51.992;5.924;2023-07-31T05:23:49;15.48;;;4.65;;
69401;SDS011;56589;51.992;5.924;2023-07-31T05:26:16;19.10;;;4.45;;
69401;SDS011;56589;51.992;5.924;2023-07-31T05:28:42;12.43;;;4.90;;
69401;SDS011;56589;51.992;5.924;2023-07-31T05:31:08;15.20;;;5.10;;
69401;SDS011;56589;51.992;5.924;2023-07-31T05:33:33;14.10;;;4.45;;
69401;SDS011;56589;51.992;5.924;2023-07-31T05:35:59;14.15;;;4.63;;
69401;SDS011;56589;51.992;5.924;2023-07-31T05:38:25;13.43;;;5.07;;
69401;SDS011;56589;51.992;5.924;2023-07-31T05:40:54;12.82;;;4.25;;
69401;SDS011;56589;51.992;5.924;2023-07-31T05:43:19;13.25;;;4.95;;
69401;SDS011;56589;51.992;5.924;2023-07-31T05:45:45;12.93;;;4.68;;
69401;SDS011;56589;51.992;5.924;2023-07-31T05:48:11;10.82;;;3.92;;
69401;SDS011;56589;51.992;5.924;2023-07-31T05:50:37;18.42;;;4.35;;
69401;SDS011;56589;51.992;5.924;2023-07-31T05:53:03;16.60;;;5.10;;
69401;SDS011;56589;51.992;5.924;2023-07-31T05:55:28;18.77;;;5.03;;
69401;SDS011;56589;51.992;5.924;2023-07-31T05:57:57;12.65;;;5.10;;
69401;SDS011;56589;51.992;5.924;2023-07-31T06:00:23;12.52;;;4.63;;
69401;SDS011;56589;51.992;5.924;2023-07-31T06:02:49;12.85;;;4.32;;
69401;SDS011;56589;51.992;5.924;2023-07-31T06:05:14;13.23;;;5.63;;
69401;SDS011;56589;51.992;5.924;2023-07-31T06:07:40;15.30;;;4.75;;
69401;SDS011;56589;51.992;5.924;2023-07-31T06:10:07;18.17;;;5.07;;
69401;SDS011;56589;51.992;5.924;2023-07-31T06:12:34;12.95;;;4.43;;
69401;SDS011;56589;51.992;5.924;2023-07-31T06:15:04;13.75;;;4.50;;
69401;SDS011;56589;51.992;5.924;2023-07-31T06:17:31;15.15;;;4.78;;
69401;SDS011;56589;51.992;5.924;2023-07-31T06:19:57;17.27;;;4.20;;
69401;SDS011;56589;51.992;5.924;2023-07-31T06:22:23;10.55;;;3.83;;
69401;SDS011;56589;51.992;5.924;2023-07-31T06:24:48;18.67;;;4.35;;
69401;SDS011;56589;51.992;5.924;2023-07-31T06:27:14;14.55;;;3.80;;
69401;SDS011;56589;51.992;5.924;2023-07-31T06:29:40;7.55;;;3.67;;
69401;SDS011;56589;51.992;5.924;2023-07-31T06:32:10;11.68;;;4.05;;
69401;SDS011;56589;51.992;5.924;2023-07-31T06:34:36;12.52;;;4.30;;
69401;SDS011;56589;51.992;5.924;2023-07-31T06:37:01;9.75;;;3.38;;
69401;SDS011;56589;51.992;5.924;2023-07-31T06:39:28;10.90;;;3.67;;
69401;SDS011;56589;51.992;5.924;2023-07-31T06:41:53;10.32;;;3.30;;
69401;SDS011;56589;51.992;5.924;2023-07-31T06:44:19;11.95;;;3.67;;
69401;SDS011;56589;51.992;5.924;2023-07-31T06:46:45;8.43;;;3.88;;
69401;SDS011;56589;51.992;5.924;2023-07-31T06:49:13;11.82;;;3.70;;
69401;SDS011;56589;51.992;5.924;2023-07-31T06:51:39;8.77;;;3.47;;
69401;SDS011;56589;51.992;5.924;2023-07-31T06:54:05;10.40;;;3.95;;
69401;SDS011;56589;51.992;5.924;2023-07-31T06:56:31;8.30;;;3.45;;
69401;SDS011;56589;51.992;5.924;2023-07-31T06:58:57;7.40;;;3.10;;
69401;SDS011;56589;51.992;5.924;2023-07-31T07:01:23;12.30;;;3.25;;
69401;SDS011;56589;51.992;5.924;2023-07-31T07:03:48;7.13;;;2.30;;
69401;SDS011;56589;51.992;5.924;2023-07-31T07:06:17;6.45;;;3.25;;
69401;SDS011;56589;51.992;5.924;2023-07-31T07:08:43;8.35;;;2.70;;
69401;SDS011;56589;51.992;5.924;2023-07-31T07:11:08;4.13;;;2.58;;
69401;SDS011;56589;51.992;5.924;2023-07-31T07:13:34;6.25;;;2.20;;
69401;SDS011;56589;51.992;5.924;2023-07-31T07:16:00;4.13;;;1.90;;
69401;SDS011;56589;51.992;5.924;2023-07-31T07:18:26;4.53;;;1.80;;
69401;SDS011;56589;51.992;5.924;2023-07-31T07:20:53;2.30;;;1.75;;
69401;SDS011;56589;51.992;5.924;2023-07-31T07:23:22;4.43;;;2.00;;
69401;SDS011;56589;51.992;5.924;2023-07-31T07:25:48;2.63;;;1.50;;
69401;SDS011;56589;51.992;5.924;2023-07-31T07:28:14;2.85;;;1.83;;
69401;SDS011;56589;51.992;5.924;2023-07-31T07:30:40;6.97;;;1.50;;
69401;SDS011;56589;51.992;5.924;2023-07-31T07:33:06;1.95;;;1.15;;
69401;SDS011;56589;51.992;5.924;2023-07-31T07:35:33;3.75;;;1.52;;
69401;SDS011;56589;51.992;5.924;2023-07-31T07:37:59;2.45;;;1.20;;
69401;SDS011;56589;51.992;5.924;2023-07-31T07:40:27;3.00;;;1.20;;
69401;SDS011;56589;51.992;5.924;2023-07-31T07:42:53;2.20;;;1.10;;
69401;SDS011;56589;51.992;5.924;2023-07-31T07:45:19;1.73;;;1.25;;
69401;SDS011;56589;51.992;5.924;2023-07-31T07:47:45;2.35;;;1.00;;
69401;SDS011;56589;51.992;5.924;2023-07-31T07:50:11;4.60;;;1.38;;
69401;SDS011;56589;51.992;5.924;2023-07-31T07:52:37;0.98;;;0.88;;
69401;SDS011;56589;51.992;5.924;2023-07-31T07:55:03;2.17;;;1.00;;
69401;SDS011;56589;51.992;5.924;2023-07-31T07:57:32;1.70;;;1.00;;
69401;SDS011;56589;51.992;5.924;2023-07-31T07:59:58;1.17;;;0.98;;
69401;SDS011;56589;51.992;5.924;2023-07-31T08:02:24;1.33;;;0.80;;
69401;SDS011;56589;51.992;5.924;2023-07-31T08:04:50;1.15;;;0.88;;
69401;SDS011;56589;51.992;5.924;2023-07-31T08:07:16;2.30;;;0.85;;
69401;SDS011;56589;51.992;5.924;2023-07-31T08:09:42;1.30;;;0.90;;
69401;SDS011;56589;51.992;5.924;2023-07-31T08:12:08;0.90;;;0.80;;
69401;SDS011;56589;51.992;5.924;2023-07-31T08:14:36;2.75;;;1.20;;
69401;SDS011;56589;51.992;5.924;2023-07-31T08:17:03;1.52;;;1.00;;
69401;SDS011;56589;51.992;5.924;2023-07-31T08:19:29;2.00;;;1.10;;
69401;SDS011;56589;51.992;5.924;2023-07-31T08:21:55;2.47;;;1.10;;
69401;SDS011;56589;51.992;5.924;2023-07-31T08:24:20;1.15;;;0.90;;
69401;SDS011;56589;51.992;5.924;2023-07-31T08:26:46;2.78;;;1.50;;
69401;SDS011;56589;51.992;5.924;2023-07-31T08:29:12;5.03;;;1.40;;
69401;SDS011;56589;51.992;5.924;2023-07-31T08:31:41;1.52;;;1.20;;
69401;SDS011;56589;51.992;5.924;2023-07-31T08:34:07;2.10;;;1.55;;
69401;SDS011;56589;51.992;5.924;2023-07-31T08:36:33;1.85;;;1.50;;
69401;SDS011;56589;51.992;5.924;2023-07-31T08:38:58;2.10;;;1.20;;
69401;SDS011;56589;51.992;5.924;2023-07-31T08:41:24;2.80;;;1.55;;
69401;SDS011;56589;51.992;5.924;2023-07-31T08:43:50;3.70;;;1.80;;
69401;SDS011;56589;51.992;5.924;2023-07-31T08:46:17;1.95;;;1.33;;
69401;SDS011;56589;51.992;5.924;2023-07-31T08:48:49;2.38;;;1.88;;
69401;SDS011;56589;51.992;5.924;2023-07-31T08:51:17;2.72;;;1.52;;
69401;SDS011;56589;51.992;5.924;2023-07-31T08:53:42;2.55;;;1.80;;
69401;SDS011;56589;51.992;5.924;2023-07-31T08:56:08;2.13;;;1.67;;
69401;SDS011;56589;51.992;5.924;2023-07-31T08:58:36;2.08;;;1.40;;
69401;SDS011;56589;51.992;5.924;2023-07-31T09:01:04;2.60;;;1.35;;
69401;SDS011;56589;51.992;5.924;2023-07-31T09:03:33;2.28;;;1.50;;
69401;SDS011;56589;51.992;5.924;2023-07-31T09:06:03;1.75;;;1.52;;
69401;SDS011;56589;51.992;5.924;2023-07-31T09:08:30;4.47;;;1.73;;
69401;SDS011;56589;51.992;5.924;2023-07-31T09:10:58;2.70;;;1.80;;
69401;SDS011;56589;51.992;5.924;2023-07-31T09:13:26;2.13;;;1.85;;
69401;SDS011;56589;51.992;5.924;2023-07-31T09:15:53;2.28;;;1.70;;
69401;SDS011;56589;51.992;5.924;2023-07-31T09:18:19;2.40;;;1.70;;
69401;SDS011;56589;51.992;5.924;2023-07-31T09:20:45;5.75;;;1.83;;
69401;SDS011;56589;51.992;5.924;2023-07-31T09:23:13;3.17;;;1.83;;
69401;SDS011;56589;51.992;5.924;2023-07-31T09:25:40;3.05;;;1.80;;
69401;SDS011;56589;51.992;5.924;2023-07-31T09:28:10;3.13;;;2.20;;
69401;SDS011;56589;51.992;5.924;2023-07-31T09:30:44;4.43;;;2.15;;
69401;SDS011;56589;51.992;5.924;2023-07-31T09:33:13;4.03;;;2.28;;
69401;SDS011;56589;51.992;5.924;2023-07-31T09:35:39;4.00;;;2.65;;
69401;SDS011;56589;51.992;5.924;2023-07-31T09:38:06;4.13;;;2.28;;
69401;SDS011;56589;51.992;5.924;2023-07-31T09:40:38;3.85;;;2.58;;
69401;SDS011;56589;51.992;5.924;2023-07-31T09:43:07;3.67;;;2.72;;
69401;SDS011;56589;51.992;5.924;2023-07-31T09:45:36;6.35;;;2.83;;
69401;SDS011;56589;51.992;5.924;2023-07-31T09:48:06;4.18;;;2.90;;
69401;SDS011;56589;51.992;5.924;2023-07-31T09:50:34;4.18;;;3.30;;
69401;SDS011;56589;51.992;5.924;2023-07-31T09:53:03;3.80;;;3.40;;
69401;SDS011;56589;51.992;5.924;2023-07-31T09:55:29;6.47;;;3.80;;
69401;SDS011;56589;51.992;5.924;2023-07-31T09:57:58;7.10;;;4.05;;
69401;SDS011;56589;51.992;5.924;2023-07-31T10:00:29;8.43;;;3.70;;
69401;SDS011;56589;51.992;5.924;2023-07-31T10:02:57;7.72;;;4.28;;
69401;SDS011;56589;51.992;5.924;2023-07-31T10:05:24;7.35;;;4.35;;
69401;SDS011;56589;51.992;5.924;2023-07-31T10:08:00;5.80;;;3.53;;
69401;SDS011;56589;51.992;5.924;2023-07-31T10:10:26;9.35;;;4.43;;
69401;SDS011;56589;51.992;5.924;2023-07-31T10:12:53;6.22;;;3.60;;
69401;SDS011;56589;51.992;5.924;2023-07-31T10:15:23;5.28;;;3.95;;
69401;SDS011;56589;51.992;5.924;2023-07-31T10:17:51;8.98;;;3.90;;
69401;SDS011;56589;51.992;5.924;2023-07-31T10:20:19;9.20;;;4.30;;
69401;SDS011;56589;51.992;5.924;2023-07-31T10:22:46;7.10;;;4.15;;
69401;SDS011;56589;51.992;5.924;2023-07-31T10:25:14;6.00;;;4.45;;
69401;SDS011;56589;51.992;5.924;2023-07-31T10:27:41;8.30;;;4.60;;
69401;SDS011;56589;51.992;5.924;2023-07-31T10:30:09;6.15;;;4.43;;
69401;SDS011;56589;51.992;5.924;2023-07-31T10:32:43;6.15;;;4.70;;
69401;SDS011;56589;51.992;5.924;2023-07-31T10:35:11;8.63;;;4.70;;
69401;SDS011;56589;51.992;5.924;2023-07-31T10:37:38;6.32;;;4.30;;
69401;SDS011;56589;51.992;5.924;2023-07-31T10:40:09;6.55;;;4.35;;
69401;SDS011;56589;51.992;5.924;2023-07-31T10:42:37;9.75;;;5.13;;
69401;SDS011;56589;51.992;5.924;2023-07-31T10:45:11;7.50;;;4.53;;
69401;SDS011;56589;51.992;5.924;2023-07-31T10:47:37;7.50;;;5.05;;
69401;SDS011;56589;51.992;5.924;2023-07-31T10:50:19;11.38;;;4.97;;
69401;SDS011;56589;51.992;5.924;2023-07-31T10:52:48;7.85;;;5.25;;
69401;SDS011;56589;51.992;5.924;2023-07-31T10:55:16;7.90;;;4.80;;
69401;SDS011;56589;51.992;5.924;2023-07-31T10:57:50;8.60;;;4.95;;
69401;SDS011;56589;51.992;5.924;2023-07-31T11:00:18;7.57;;;4.40;;
69401;SDS011;56589;51.992;5.924;2023-07-31T11:02:55;8.05;;;4.40;;
69401;SDS011;56589;51.992;5.924;2023-07-31T11:05:37;7.80;;;4.80;;
69401;SDS011;56589;51.992;5.924;2023-07-31T11:08:12;11.23;;;4.78;;
69401;SDS011;56589;51.992;5.924;2023-07-31T11:10:39;7.32;;;4.30;;
69401;SDS011;56589;51.992;5.924;2023-07-31T11:13:05;7.95;;;4.28;;
69401;SDS011;56589;51.992;5.924;2023-07-31T11:15:31;5.38;;;4.60;;
69401;SDS011;56589;51.992;5.924;2023-07-31T11:17:57;6.15;;;4.03;;
69401;SDS011;56589;51.992;5.924;2023-07-31T11:20:25;8.70;;;4.65;;
69401;SDS011;56589;51.992;5.924;2023-07-31T11:22:53;7.93;;;4.45;;
69401;SDS011;56589;51.992;5.924;2023-07-31T11:25:19;8.63;;;4.18;;
69401;SDS011;56589;51.992;5.924;2023-07-31T11:27:45;5.78;;;4.35;;
69401;SDS011;56589;51.992;5.924;2023-07-31T11:30:11;6.60;;;4.50;;
69401;SDS011;56589;51.992;5.924;2023-07-31T11:32:37;7.78;;;4.40;;
69401;SDS011;56589;51.992;5.924;2023-07-31T11:35:04;7.82;;;4.40;;
69401;SDS011;56589;51.992;5.924;2023-07-31T11:37:38;6.28;;;4.13;;
69401;SDS011;56589;51.992;5.924;2023-07-31T11:40:08;7.28;;;4.43;;
69401;SDS011;56589;51.992;5.924;2023-07-31T11:42:35;6.03;;;4.25;;
69401;SDS011;56589;51.992;5.924;2023-07-31T11:45:02;8.43;;;4.10;;
69401;SDS011;56589;51.992;5.924;2023-07-31T11:47:29;5.72;;;4.22;;
69401;SDS011;56589;51.992;5.924;2023-07-31T11:49:57;8.80;;;4.03;;
69401;SDS011;56589;51.992;5.924;2023-07-31T11:52:23;7.53;;;4.72;;
69401;SDS011;56589;51.992;5.924;2023-07-31T11:54:50;7.13;;;4.00;;
69401;SDS011;56589;51.992;5.924;2023-07-31T11:57:19;7.18;;;4.15;;
69401;SDS011;56589;51.992;5.924;2023-07-31T11:59:46;7.53;;;4.13;;
69401;SDS011;56589;51.992;5.924;2023-07-31T12:02:12;6.65;;;4.20;;
69401;SDS011;56589;51.992;5.924;2023-07-31T12:04:38;5.72;;;4.20;;
69401;SDS011;56589;51.992;5.924;2023-07-31T12:07:05;9.52;;;4.00;;
69401;SDS011;56589;51.992;5.924;2023-07-31T12:09:31;8.70;;;4.53;;
69401;SDS011;56589;51.992;5.924;2023-07-31T12:11:57;7.55;;;3.65;;
69401;SDS011;56589;51.992;5.924;2023-07-31T12:14:26;5.80;;;3.80;;
69401;SDS011;56589;51.992;5.924;2023-07-31T12:16:54;6.03;;;3.70;;
69401;SDS011;56589;51.992;5.924;2023-07-31T12:19:21;4.93;;;3.13;;
69401;SDS011;56589;51.992;5.924;2023-07-31T12:21:47;5.53;;;3.20;;
69401;SDS011;56589;51.992;5.924;2023-07-31T12:24:13;5.00;;;3.17;;
69401;SDS011;56589;51.992;5.924;2023-07-31T12:26:39;4.70;;;3.55;;
69401;SDS011;56589;51.992;5.924;2023-07-31T12:29:05;6.38;;;3.22;;
69401;SDS011;56589;51.992;5.924;2023-07-31T12:31:36;4.72;;;3.58;;
69401;SDS011;56589;51.992;5.924;2023-07-31T12:34:14;4.30;;;3.38;;
69401;SDS011;56589;51.992;5.924;2023-07-31T12:36:43;5.90;;;3.50;;
69401;SDS011;56589;51.992;5.924;2023-07-31T12:39:10;11.35;;;3.72;;
69401;SDS011;56589;51.992;5.924;2023-07-31T12:41:36;5.75;;;3.65;;
69401;SDS011;56589;51.992;5.924;2023-07-31T12:44:04;5.28;;;3.83;;
69401;SDS011;56589;51.992;5.924;2023-07-31T12:46:31;4.72;;;3.50;;
69401;SDS011;56589;51.992;5.924;2023-07-31T12:49:01;6.80;;;4.53;;
69401;SDS011;56589;51.992;5.924;2023-07-31T12:51:27;8.10;;;4.40;;
69401;SDS011;56589;51.992;5.924;2023-07-31T12:53:53;6.05;;;4.03;;
69401;SDS011;56589;51.992;5.924;2023-07-31T12:56:19;7.57;;;4.40;;
69401;SDS011;56589;51.992;5.924;2023-07-31T12:58:45;6.88;;;3.63;;
69401;SDS011;56589;51.992;5.924;2023-07-31T14:12:07;8.52;;;5.30;;
69401;SDS011;56589;51.992;5.924;2023-07-31T14:14:33;7.80;;;5.80;;
69401;SDS011;56589;51.992;5.924;2023-07-31T14:16:59;9.15;;;5.75;;
69401;SDS011;56589;51.992;5.924;2023-07-31T14:19:25;10.40;;;6.32;;
69401;SDS011;56589;51.992;5.924;2023-07-31T14:21:51;8.23;;;5.30;;
69401;SDS011;56589;51.992;5.924;2023-07-31T14:24:16;10.30;;;5.72;;
69401;SDS011;56589;51.992;5.924;2023-07-31T14:26:42;10.70;;;4.70;;
69401;SDS011;56589;51.992;5.924;2023-07-31T14:29:10;7.60;;;4.85;;
69401;SDS011;56589;51.992;5.924;2023-07-31T14:31:36;10.00;;;4.90;;
69401;SDS011;56589;51.992;5.924;2023-07-31T14:34:02;9.35;;;5.32;;
69401;SDS011;56589;51.992;5.924;2023-07-31T14:36:28;11.02;;;5.68;;
69401;SDS011;56589;51.992;5.924;2023-07-31T14:38:54;9.77;;;5.82;;
69401;SDS011;56589;51.992;5.924;2023-07-31T14:41:20;9.07;;;4.80;;
69401;SDS011;56589;51.992;5.924;2023-07-31T14:43:46;14.52;;;5.93;;
69401;SDS011;56589;51.992;5.924;2023-07-31T14:46:14;9.25;;;4.90;;
69401;SDS011;56589;51.992;5.924;2023-07-31T14:48:40;12.50;;;4.60;;
69401;SDS011;56589;51.992;5.924;2023-07-31T14:51:06;7.68;;;4.15;;
69401;SDS011;56589;51.992;5.924;2023-07-31T14:53:32;5.65;;;3.80;;
69401;SDS011;56589;51.992;5.924;2023-07-31T14:55:57;8.55;;;3.95;;
69401;SDS011;56589;51.992;5.924;2023-07-31T14:58:23;5.10;;;3.83;;
69401;SDS011;56589;51.992;5.924;2023-07-31T15:00:49;10.90;;;4.32;;
69401;SDS011;56589;51.992;5.924;2023-07-31T15:03:18;9.95;;;4.28;;
69401;SDS011;56589;51.992;5.924;2023-07-31T15:05:43;9.45;;;4.78;;
69401;SDS011;56589;51.992;5.924;2023-07-31T15:08:09;7.05;;;4.43;;
69401;SDS011;56589;51.992;5.924;2023-07-31T15:10:35;10.02;;;4.20;;
69401;SDS011;56589;51.992;5.924;2023-07-31T15:13:01;6.18;;;4.20;;
69401;SDS011;56589;51.992;5.924;2023-07-31T15:15:27;7.28;;;4.25;;
69401;SDS011;56589;51.992;5.924;2023-07-31T15:17:53;7.97;;;4.63;;
69401;SDS011;56589;51.992;5.924;2023-07-31T15:20:21;7.57;;;4.40;;
69401;SDS011;56589;51.992;5.924;2023-07-31T15:22:48;7.55;;;4.10;;
69401;SDS011;56589;51.992;5.924;2023-07-31T15:25:14;7.90;;;3.90;;
69401;SDS011;56589;51.992;5.924;2023-07-31T15:27:39;6.18;;;3.85;;
69401;SDS011;56589;51.992;5.924;2023-07-31T15:30:06;7.25;;;3.70;;
69401;SDS011;56589;51.992;5.924;2023-07-31T15:32:34;6.07;;;3.55;;
69401;SDS011;56589;51.992;5.924;2023-07-31T15:35:02;7.05;;;3.65;;
69401;SDS011;56589;51.992;5.924;2023-07-31T15:37:31;6.90;;;3.72;;
69401;SDS011;56589;51.992;5.924;2023-07-31T15:39:57;6.53;;;3.50;;
69401;SDS011;56589;51.992;5.924;2023-07-31T15:42:23;6.05;;;3.53;;
69401;SDS011;56589;51.992;5.924;2023-07-31T15:44:49;8.32;;;3.92;;
69401;SDS011;56589;51.992;5.924;2023-07-31T15:47:15;7.63;;;3.67;;
69401;SDS011;56589;51.992;5.924;2023-07-31T15:49:41;5.90;;;3.70;;
69401;SDS011;56589;51.992;5.924;2023-07-31T15:52:07;7.10;;;3.28;;
69401;SDS011;56589;51.992;5.924;2023-07-31T15:54:36;6.80;;;3.67;;